Time;durP1;ratioP1;P1;durP2;ratioP2;P2;SDS_P1;SDS_P2;PMS_P1;PMS_P2;Temp;Humidity;BMP_temperature;BMP_pressure;BME280_temperature;BME280_humidity;BME280_pressure;Samples;Min_cycle;Max_cycle;Signal;HPM_P1;HPM_P2
2022/03/04 00:01:09;;;;;;;12.33;7.63;;;2.30;99.90;;;;;;4924979;29;20442;-71
2022/03/04 00:03:34;;;;;;;11.13;8.03;;;2.40;99.90;;;;;;4925536;29;20164;-71
2022/03/04 00:06:00;;;;;;;9.93;8.90;;;2.40;99.90;;;;;;4924708;29;20066;-72
2022/03/04 00:08:26;;;;;;;10.03;8.23;;;2.30;99.90;;;;;;4925622;29;20075;-72
2022/03/04 00:10:51;;;;;;;13.97;6.37;;;2.30;99.90;;;;;;4923885;29;20048;-72
2022/03/04 00:13:17;;;;;;;11.80;6.40;;;2.30;99.90;;;;;;4925485;29;20040;-72
2022/03/04 00:15:42;;;;;;;10.43;7.40;;;2.30;99.90;;;;;;4926120;29;20044;-72
2022/03/04 00:18:08;;;;;;;8.97;7.17;;;2.30;99.90;;;;;;4924377;28;20035;-72
2022/03/04 00:20:33;;;;;;;13.70;7.37;;;2.30;99.90;;;;;;4925054;28;20091;-72
2022/03/04 00:22:59;;;;;;;8.53;7.63;;;2.20;99.90;;;;;;4939693;28;20036;-72
2022/03/04 00:25:24;;;;;;;7.77;7.07;;;2.20;99.90;;;;;;4923878;28;20573;-72
2022/03/04 00:27:50;;;;;;;9.73;7.63;;;2.20;99.90;;;;;;4939335;28;20106;-72
2022/03/04 00:30:15;;;;;;;9.90;6.30;;;2.20;99.90;;;;;;4925259;29;20056;-72
2022/03/04 00:32:41;;;;;;;8.10;7.23;;;2.20;99.90;;;;;;4923916;28;20126;-71
2022/03/04 00:35:08;;;;;;;6.87;5.70;;;2.10;99.90;;;;;;4924307;29;20048;-72
2022/03/04 00:37:33;;;;;;;6.80;5.73;;;2.10;99.90;;;;;;4924798;28;20036;-72
2022/03/04 00:39:59;;;;;;;8.67;6.23;;;2.10;99.90;;;;;;4925006;29;20411;-72
2022/03/04 00:42:27;;;;;;;8.20;6.93;;;2.10;99.90;;;;;;4924032;28;20134;-71
2022/03/04 00:44:53;;;;;;;7.13;5.87;;;2.10;99.90;;;;;;4923314;29;20126;-71
2022/03/04 00:47:18;;;;;;;8.97;5.70;;;2.10;99.90;;;;;;4924789;29;20083;-72
2022/03/04 00:49:44;;;;;;;11.97;6.83;;;2.10;99.90;;;;;;4925482;29;20043;-71
2022/03/04 00:52:10;;;;;;;7.07;6.20;;;2.10;99.90;;;;;;4925124;29;20046;-72
2022/03/04 00:54:35;;;;;;;10.90;6.37;;;2.10;99.90;;;;;;4924606;29;20127;-71
2022/03/04 00:57:01;;;;;;;8.67;6.23;;;2.10;99.90;;;;;;4923838;29;20047;-72
2022/03/04 00:59:26;;;;;;;8.20;6.07;;;2.10;99.90;;;;;;4924596;29;20056;-72
2022/03/04 01:01:52;;;;;;;6.60;5.90;;;2.00;99.90;;;;;;4925329;29;20050;-72
2022/03/04 01:04:18;;;;;;;3.90;3.60;;;2.00;99.90;;;;;;4942606;28;20380;-72
2022/03/04 01:06:43;;;;;;;7.83;5.57;;;2.00;99.90;;;;;;4927652;29;20052;-72
2022/03/04 01:09:09;;;;;;;4.47;4.07;;;2.00;99.90;;;;;;4927816;29;20530;-72
2022/03/04 01:11:36;;;;;;;8.70;5.83;;;2.00;99.90;;;;;;4927557;29;20099;-72
2022/03/04 01:14:02;;;;;;;11.70;6.20;;;2.00;99.90;;;;;;4928172;28;20573;-72
2022/03/04 01:16:28;;;;;;;7.80;6.73;;;1.90;99.90;;;;;;4928630;29;20083;-72
2022/03/04 01:18:54;;;;;;;5.70;4.87;;;1.90;99.90;;;;;;4927692;28;20075;-72
2022/03/04 01:21:19;;;;;;;6.03;5.17;;;1.90;99.90;;;;;;4927875;28;20252;-71
2022/03/04 01:23:45;;;;;;;13.57;5.77;;;1.90;99.90;;;;;;4910812;29;20048;-72
2022/03/04 01:26:10;;;;;;;5.90;5.20;;;1.90;99.90;;;;;;4927501;28;20340;-72
2022/03/04 01:28:36;;;;;;;4.80;4.07;;;1.90;99.90;;;;;;4927983;28;20043;-71
2022/03/04 01:31:02;;;;;;;7.00;3.07;;;1.80;99.90;;;;;;4927121;28;20142;-71
2022/03/04 01:33:27;;;;;;;16.33;7.93;;;1.80;99.90;;;;;;4928189;28;20483;-72
2022/03/04 01:35:53;;;;;;;5.50;5.00;;;1.70;99.90;;;;;;4927328;29;20054;-71
2022/03/04 01:38:18;;;;;;;7.40;5.23;;;1.70;99.90;;;;;;4927817;29;20051;-72
2022/03/04 01:40:44;;;;;;;4.13;3.73;;;1.70;99.90;;;;;;4925998;28;20044;-71
2022/03/04 01:43:10;;;;;;;5.77;5.20;;;1.60;99.90;;;;;;4927877;29;20580;-71
2022/03/04 01:45:35;;;;;;;6.30;4.87;;;1.60;99.90;;;;;;4927984;28;20044;-71
2022/03/04 01:48:01;;;;;;;12.50;4.80;;;1.60;99.90;;;;;;4927786;29;20047;-72
2022/03/04 01:50:26;;;;;;;4.10;3.70;;;1.60;99.90;;;;;;4942578;28;20075;-71
2022/03/04 01:52:52;;;;;;;7.87;5.13;;;1.60;99.90;;;;;;4927240;29;20107;-71
2022/03/04 01:55:18;;;;;;;6.57;4.43;;;1.60;99.90;;;;;;4925057;29;20047;-72
2022/03/04 01:57:44;;;;;;;4.70;4.00;;;1.60;99.90;;;;;;4927545;29;20054;-71
2022/03/04 02:00:12;;;;;;;10.27;4.63;;;1.60;99.90;;;;;;4928077;28;20399;-72
2022/03/04 02:02:39;;;;;;;7.57;5.00;;;1.50;99.90;;;;;;4927260;28;20106;-71
2022/03/04 02:05:05;;;;;;;8.83;4.70;;;1.50;99.90;;;;;;4927286;29;20044;-72
2022/03/04 02:07:30;;;;;;;7.33;3.90;;;1.50;99.90;;;;;;4926527;28;20134;-72
2022/03/04 02:09:56;;;;;;;5.30;4.80;;;1.50;99.90;;;;;;4926390;29;20051;-72
2022/03/04 02:12:21;;;;;;;4.53;4.13;;;1.50;99.90;;;;;;4926915;29;20278;-71
2022/03/04 02:14:47;;;;;;;12.77;5.03;;;1.50;99.90;;;;;;4926622;29;20481;-72
2022/03/04 02:17:13;;;;;;;7.03;6.33;;;1.50;99.90;;;;;;4927653;29;20538;-71
2022/03/04 02:19:38;;;;;;;4.60;4.20;;;1.50;99.90;;;;;;4926404;29;20052;-71
2022/03/04 02:22:05;;;;;;;6.60;3.60;;;1.40;99.90;;;;;;4925575;28;20249;-72
2022/03/04 02:24:31;;;;;;;11.17;5.50;;;1.40;99.90;;;;;;4927822;28;20050;-71
2022/03/04 02:27:00;;;;;;;8.50;6.67;;;1.40;99.90;;;;;;4923725;28;20052;-71
2022/03/04 02:29:26;;;;;;;14.77;5.70;;;1.40;99.90;;;;;;4926657;29;20040;-72
2022/03/04 02:31:52;;;;;;;4.40;4.03;;;1.40;99.90;;;;;;4926494;28;20043;-71
2022/03/04 02:34:18;;;;;;;6.43;5.30;;;1.40;99.90;;;;;;4927583;28;20043;-72
2022/03/04 02:36:45;;;;;;;11.57;5.07;;;1.40;99.90;;;;;;4927303;28;20036;-72
2022/03/04 02:39:10;;;;;;;9.20;5.97;;;1.40;99.90;;;;;;4926583;29;20046;-72
2022/03/04 02:41:36;;;;;;;6.03;4.93;;;1.40;99.90;;;;;;4925578;28;20047;-71
2022/03/04 02:44:11;;;;;;;8.53;5.63;;;1.40;99.90;;;;;;4925822;29;20050;-72
2022/03/04 02:46:37;;;;;;;10.23;5.40;;;1.40;99.90;;;;;;4925864;29;20114;-72
2022/03/04 02:49:07;;;;;;;5.30;4.80;;;1.40;99.90;;;;;;4924030;29;20343;-71
2022/03/04 02:51:33;;;;;;;10.00;5.17;;;1.40;99.90;;;;;;4926340;29;20509;-71
2022/03/04 02:53:59;;;;;;;9.10;4.87;;;1.40;99.90;;;;;;4925723;29;20390;-72
2022/03/04 02:56:24;;;;;;;8.23;5.27;;;1.30;99.90;;;;;;4925388;29;20047;-71
2022/03/04 02:58:50;;;;;;;6.07;5.47;;;1.40;99.90;;;;;;4925956;29;20099;-72
2022/03/04 03:01:16;;;;;;;5.57;4.63;;;1.40;99.90;;;;;;4925829;28;20058;-71
2022/03/04 03:03:41;;;;;;;5.87;5.33;;;1.30;99.90;;;;;;4926429;28;20040;-71
2022/03/04 03:06:08;;;;;;;6.37;5.73;;;1.30;99.90;;;;;;4926545;28;20046;-71
2022/03/04 03:08:33;;;;;;;8.60;6.53;;;1.30;99.90;;;;;;4926875;29;20063;-72
2022/03/04 03:10:59;;;;;;;7.77;6.10;;;1.30;99.90;;;;;;4924937;28;20328;-72
2022/03/04 03:13:25;;;;;;;7.10;5.17;;;1.20;99.90;;;;;;4925623;28;20043;-71
2022/03/04 03:15:51;;;;;;;7.30;6.47;;;1.20;99.90;;;;;;4924523;29;20300;-72
2022/03/04 03:18:17;;;;;;;9.77;5.37;;;1.20;99.90;;;;;;4926607;28;20135;-71
2022/03/04 03:20:43;;;;;;;5.23;4.77;;;1.20;99.90;;;;;;4926701;29;20056;-71
2022/03/04 03:23:09;;;;;;;5.93;4.83;;;1.20;99.90;;;;;;4926121;29;20126;-72
2022/03/04 03:25:34;;;;;;;4.53;4.20;;;1.10;99.90;;;;;;4924105;28;20352;-71
2022/03/04 03:28:00;;;;;;;7.13;5.93;;;1.20;99.90;;;;;;4926362;29;20118;-71
2022/03/04 03:30:26;;;;;;;7.63;6.83;;;1.20;99.90;;;;;;4941010;28;20075;-71
2022/03/04 03:32:52;;;;;;;5.27;4.73;;;1.20;99.90;;;;;;4925821;28;20042;-72
2022/03/04 03:35:17;;;;;;;11.83;5.67;;;1.20;99.90;;;;;;4924939;29;20044;-71
2022/03/04 03:37:43;;;;;;;11.03;7.33;;;1.20;99.90;;;;;;4925999;28;20043;-72
2022/03/04 03:40:10;;;;;;;4.13;3.73;;;1.10;99.90;;;;;;4924529;28;20048;-71
2022/03/04 03:42:37;;;;;;;7.00;5.50;;;1.20;99.90;;;;;;4925173;29;20087;-71
2022/03/04 03:45:07;;;;;;;7.90;7.10;;;1.10;99.90;;;;;;4925099;29;20039;-71
2022/03/04 03:47:33;;;;;;;10.40;6.73;;;1.10;99.90;;;;;;4923919;29;20058;-71
2022/03/04 03:49:59;;;;;;;7.47;5.77;;;1.10;99.90;;;;;;4924638;28;20040;-71
2022/03/04 03:52:24;;;;;;;9.87;6.00;;;1.10;99.90;;;;;;4926300;28;20039;-71
2022/03/04 03:54:50;;;;;;;8.03;6.40;;;1.10;99.90;;;;;;4924456;28;20067;-71
2022/03/04 03:57:16;;;;;;;6.80;4.30;;;1.10;99.90;;;;;;4924833;28;20043;-71
2022/03/04 03:59:41;;;;;;;16.10;7.60;;;1.10;99.90;;;;;;4925358;28;20043;-71
2022/03/04 04:02:07;;;;;;;7.83;7.07;;;1.10;99.90;;;;;;4923815;29;20094;-71
2022/03/04 04:04:34;;;;;;;7.30;6.70;;;1.10;99.90;;;;;;4925790;29;20047;-71
2022/03/04 04:07:08;;;;;;;11.23;5.80;;;1.10;99.90;;;;;;4924312;29;20551;-71
2022/03/04 04:09:35;;;;;;;7.13;4.50;;;1.10;99.90;;;;;;4924994;28;20418;-72
2022/03/04 04:12:00;;;;;;;34.47;7.03;;;1.00;99.90;;;;;;4925872;28;20059;-71
2022/03/04 04:14:28;;;;;;;7.13;4.70;;;1.00;99.90;;;;;;4939230;28;20039;-71
2022/03/04 04:16:54;;;;;;;10.20;5.50;;;1.00;99.90;;;;;;4922905;28;20525;-71
2022/03/04 04:19:20;;;;;;;7.60;6.97;;;1.00;99.90;;;;;;4925159;28;20040;-71
2022/03/04 04:21:46;;;;;;;8.80;5.23;;;1.00;99.90;;;;;;4925343;28;20046;-71
2022/03/04 04:24:12;;;;;;;7.77;6.97;;;1.00;99.90;;;;;;4925032;29;20044;-71
2022/03/04 04:26:37;;;;;;;5.87;5.27;;;1.00;99.90;;;;;;4924714;28;20393;-71
2022/03/04 04:29:03;;;;;;;8.17;5.40;;;0.90;99.90;;;;;;4923249;28;20040;-71
2022/03/04 04:31:31;;;;;;;11.13;7.13;;;0.90;99.90;;;;;;4925683;29;20055;-71
2022/03/04 04:33:57;;;;;;;10.80;6.37;;;0.90;99.90;;;;;;4922937;29;20576;-71
2022/03/04 04:36:22;;;;;;;11.20;7.37;;;0.90;99.90;;;;;;4924042;28;20056;-71
2022/03/04 04:38:48;;;;;;;7.23;6.57;;;0.90;99.90;;;;;;4927979;28;20383;-71
2022/03/04 04:41:13;;;;;;;6.93;5.43;;;0.80;99.90;;;;;;4928462;29;20054;-71
2022/03/04 04:43:39;;;;;;;10.43;6.30;;;0.80;99.90;;;;;;4928774;28;20456;-71
2022/03/04 04:46:05;;;;;;;9.43;6.47;;;0.80;99.90;;;;;;4927272;29;20066;-72
2022/03/04 04:48:32;;;;;;;11.97;5.57;;;0.80;99.90;;;;;;4928815;29;20050;-71
2022/03/04 04:50:59;;;;;;;7.43;5.53;;;0.80;99.90;;;;;;4927132;29;20102;-71
2022/03/04 04:53:25;;;;;;;5.63;5.10;;;0.80;99.90;;;;;;4928500;29;20043;-71
2022/03/04 04:55:50;;;;;;;5.33;4.93;;;0.80;99.90;;;;;;4928050;29;20046;-72
2022/03/04 04:58:16;;;;;;;8.30;7.00;;;0.80;99.90;;;;;;4928733;29;20394;-71
2022/03/04 05:00:42;;;;;;;6.60;5.80;;;0.70;99.90;;;;;;4928476;29;20044;-72
2022/03/04 05:03:07;;;;;;;11.70;8.53;;;0.80;99.90;;;;;;4928339;29;20043;-72
2022/03/04 05:05:34;;;;;;;7.70;6.97;;;0.70;99.90;;;;;;4928159;29;20119;-72
2022/03/04 05:08:00;;;;;;;7.43;6.73;;;0.80;99.90;;;;;;4928488;29;20098;-72
2022/03/04 05:10:26;;;;;;;14.23;8.03;;;0.70;99.90;;;;;;4926002;29;20048;-72
2022/03/04 05:12:51;;;;;;;8.63;6.23;;;0.70;99.90;;;;;;4928036;29;20075;-71
2022/03/04 05:15:17;;;;;;;6.87;6.17;;;0.70;99.90;;;;;;4928448;28;20044;-71
2022/03/04 05:17:44;;;;;;;10.73;6.60;;;0.70;99.90;;;;;;4929323;29;20086;-71
2022/03/04 05:20:10;;;;;;;12.77;6.97;;;0.70;99.90;;;;;;4926897;29;20048;-71
2022/03/04 05:22:36;;;;;;;13.67;6.20;;;0.70;99.90;;;;;;4928658;28;20044;-71
2022/03/04 05:25:01;;;;;;;10.47;8.20;;;0.70;99.90;;;;;;4926912;29;20434;-71
2022/03/04 05:27:27;;;;;;;8.83;7.73;;;0.70;99.90;;;;;;4928464;28;20470;-71
2022/03/04 05:29:53;;;;;;;18.47;8.07;;;0.60;99.90;;;;;;4926452;28;20506;-71
2022/03/04 05:32:18;;;;;;;5.47;4.33;;;0.60;99.90;;;;;;4927718;29;20478;-71
2022/03/04 05:34:44;;;;;;;8.67;7.87;;;0.60;99.90;;;;;;4927139;29;20486;-71
2022/03/04 05:37:09;;;;;;;9.63;5.83;;;0.60;99.90;;;;;;4928312;29;20047;-71
2022/03/04 05:39:35;;;;;;;5.87;5.30;;;0.60;99.90;;;;;;4927366;28;20051;-71
2022/03/04 05:42:00;;;;;;;9.80;6.87;;;0.60;99.90;;;;;;4927765;29;20422;-71
2022/03/04 05:44:26;;;;;;;10.47;7.33;;;0.60;99.90;;;;;;4927632;28;20075;-71
2022/03/04 05:46:51;;;;;;;10.40;6.87;;;0.60;99.90;;;;;;4927269;29;20042;-71
2022/03/04 05:49:17;;;;;;;6.83;5.27;;;0.60;99.90;;;;;;4927457;29;20143;-72
2022/03/04 05:51:43;;;;;;;10.07;8.27;;;0.50;99.90;;;;;;4927442;29;20040;-71
2022/03/04 05:54:09;;;;;;;11.10;8.93;;;0.50;99.90;;;;;;4926377;29;20160;-71
2022/03/04 05:56:34;;;;;;;8.73;6.70;;;0.50;99.90;;;;;;4925478;29;20265;-71
2022/03/04 05:59:00;;;;;;;7.37;6.63;;;0.50;99.90;;;;;;4927422;29;20048;-71
2022/03/04 06:01:25;;;;;;;12.30;7.83;;;0.50;99.90;;;;;;4925358;29;20166;-71
2022/03/04 06:03:51;;;;;;;9.50;5.43;;;0.50;99.90;;;;;;4926706;29;20044;-72
2022/03/04 06:06:16;;;;;;;9.70;7.60;;;0.50;99.90;;;;;;4927354;29;20126;-71
2022/03/04 06:08:42;;;;;;;10.53;5.67;;;0.50;99.90;;;;;;4927738;29;20514;-71
2022/03/04 06:11:09;;;;;;;10.60;7.13;;;0.50;99.90;;;;;;4926125;29;20138;-71
2022/03/04 06:13:36;;;;;;;9.60;8.47;;;0.50;99.90;;;;;;4927828;29;20063;-72
2022/03/04 06:16:02;;;;;;;12.87;7.23;;;0.50;99.90;;;;;;4926762;29;20139;-72
2022/03/04 06:18:28;;;;;;;6.90;5.70;;;0.40;99.90;;;;;;4920144;29;20406;-72
2022/03/04 06:20:54;;;;;;;6.80;5.40;;;0.40;99.90;;;;;;4913481;29;20127;-72
2022/03/04 06:23:19;;;;;;;12.97;8.47;;;0.40;99.90;;;;;;4926669;29;20095;-72
2022/03/04 06:25:45;;;;;;;14.70;7.90;;;0.40;99.90;;;;;;4926692;29;20517;-72
2022/03/04 06:28:11;;;;;;;13.13;7.67;;;0.40;99.90;;;;;;4928586;29;20103;-73
2022/03/04 06:30:36;;;;;;;10.87;7.57;;;0.40;99.90;;;;;;4925975;29;20600;-71
2022/03/04 06:35:47;;;;;;;6.07;3.97;;;0.30;99.90;;;;;;4918566;29;20139;-72
2022/03/04 06:38:13;;;;;;;13.60;7.37;;;0.30;99.90;;;;;;4923853;29;20467;-72
2022/03/04 06:40:40;;;;;;;6.57;5.97;;;0.30;99.90;;;;;;4926264;29;20052;-72
2022/03/04 06:43:06;;;;;;;10.30;7.60;;;0.20;99.90;;;;;;4924617;29;20700;-72
2022/03/04 06:45:32;;;;;;;16.87;7.07;;;0.20;99.90;;;;;;4924807;29;20051;-72
2022/03/04 06:47:58;;;;;;;11.67;7.67;;;0.20;99.90;;;;;;4926799;29;20140;-72
2022/03/04 06:50:24;;;;;;;8.23;7.60;;;0.20;99.90;;;;;;4927256;29;20075;-73
2022/03/04 06:52:51;;;;;;;13.60;8.27;;;0.20;99.90;;;;;;4924909;29;20050;-72
2022/03/04 06:55:16;;;;;;;7.60;6.80;;;0.20;99.90;;;;;;4926254;29;20054;-73
2022/03/04 06:57:42;;;;;;;15.67;7.73;;;0.20;99.90;;;;;;4927465;29;20693;-72
2022/03/04 07:00:10;;;;;;;14.47;6.80;;;0.20;99.90;;;;;;4925574;29;20044;-73
2022/03/04 07:02:36;;;;;;;11.07;10.10;;;0.20;99.90;;;;;;4926189;29;20047;-73
2022/03/04 07:05:06;;;;;;;11.17;7.27;;;0.20;99.90;;;;;;4925631;28;20055;-73
2022/03/04 07:07:32;;;;;;;8.50;7.60;;;0.20;99.90;;;;;;4923686;29;20055;-73
2022/03/04 07:09:58;;;;;;;10.30;7.40;;;0.20;99.90;;;;;;4914175;29;20515;-73
2022/03/04 07:12:24;;;;;;;14.93;9.13;;;0.20;99.90;;;;;;4906874;29;20474;-72
2022/03/04 07:14:50;;;;;;;15.53;7.50;;;0.20;99.90;;;;;;4905752;29;20044;-73
2022/03/04 07:17:16;;;;;;;16.30;9.27;;;0.30;99.90;;;;;;4905923;29;20106;-72
2022/03/04 07:19:42;;;;;;;11.23;9.47;;;0.30;99.90;;;;;;4907826;29;20056;-72
2022/03/04 07:22:08;;;;;;;11.93;8.00;;;0.30;99.90;;;;;;4906429;29;20062;-73
2022/03/04 07:24:33;;;;;;;10.83;8.83;;;0.40;99.90;;;;;;4905004;29;20052;-72
2022/03/04 07:26:59;;;;;;;9.47;7.27;;;0.40;99.90;;;;;;4905472;29;20530;-73
2022/03/04 07:29:25;;;;;;;11.73;9.00;;;0.40;99.90;;;;;;4905846;29;20054;-72
2022/03/04 07:31:53;;;;;;;12.63;8.80;;;0.40;99.90;;;;;;4906325;29;20099;-73
2022/03/04 07:34:19;;;;;;;9.47;8.60;;;0.40;99.90;;;;;;4906940;29;20104;-72
2022/03/04 07:36:45;;;;;;;11.63;8.37;;;0.50;99.90;;;;;;4905083;29;20056;-73
2022/03/04 07:39:10;;;;;;;13.17;8.23;;;0.50;99.90;;;;;;4906817;29;20040;-73
2022/03/04 07:41:36;;;;;;;9.40;7.77;;;0.50;99.90;;;;;;4905580;29;20633;-73
2022/03/04 07:44:02;;;;;;;9.30;8.60;;;0.50;99.90;;;;;;4905956;29;20076;-73
2022/03/04 07:46:28;;;;;;;16.67;11.33;;;0.50;99.90;;;;;;4914508;29;20495;-73
2022/03/04 07:48:53;;;;;;;10.10;9.13;;;0.60;99.90;;;;;;4925617;29;20043;-71
2022/03/04 07:51:19;;;;;;;8.93;7.10;;;0.60;99.90;;;;;;4925497;29;20674;-71
2022/03/04 07:53:44;;;;;;;10.53;9.50;;;0.60;99.90;;;;;;4925937;29;20040;-71
2022/03/04 07:56:10;;;;;;;8.70;7.83;;;0.60;99.90;;;;;;4924938;29;20099;-71
2022/03/04 07:58:37;;;;;;;16.30;9.37;;;0.60;99.90;;;;;;4924733;29;20538;-71
2022/03/04 08:01:02;;;;;;;11.33;10.30;;;0.70;99.90;;;;;;4923992;29;20474;-71
2022/03/04 08:03:28;;;;;;;11.00;9.90;;;0.70;99.90;;;;;;4925706;29;20047;-71
2022/03/04 08:05:53;;;;;;;10.67;8.00;;;0.70;99.90;;;;;;4925384;29;20455;-71
2022/03/04 08:08:19;;;;;;;8.50;7.80;;;0.70;99.90;;;;;;4925558;29;20040;-71
2022/03/04 08:10:44;;;;;;;15.87;9.43;;;0.70;99.90;;;;;;4923516;29;20083;-71
2022/03/04 08:13:10;;;;;;;9.77;8.80;;;0.70;99.90;;;;;;4925674;29;20505;-71
2022/03/04 08:15:35;;;;;;;15.27;9.07;;;0.70;99.90;;;;;;4925768;29;20131;-71
2022/03/04 08:18:01;;;;;;;11.87;9.60;;;0.80;99.90;;;;;;4939693;28;20054;-73
2022/03/04 08:20:27;;;;;;;12.13;10.87;;;0.80;99.90;;;;;;4920443;29;20044;-75
2022/03/04 08:22:53;;;;;;;15.10;8.63;;;0.80;99.90;;;;;;4921292;29;20105;-74
2022/03/04 08:25:18;;;;;;;17.00;10.37;;;0.80;99.90;;;;;;4924107;29;20141;-73
2022/03/04 08:27:44;;;;;;;8.67;7.60;;;0.80;99.90;;;;;;4923725;29;20129;-73
2022/03/04 08:30:12;;;;;;;15.80;9.63;;;0.80;99.90;;;;;;4940387;28;20499;-73
2022/03/04 08:32:38;;;;;;;15.43;8.63;;;0.80;99.90;;;;;;4924765;29;20102;-73
2022/03/04 08:35:04;;;;;;;13.87;8.47;;;0.80;99.90;;;;;;4923840;29;20076;-76
2022/03/04 08:37:30;;;;;;;15.43;10.40;;;0.90;99.90;;;;;;4904857;29;20055;-79
2022/03/04 08:39:55;;;;;;;10.60;9.30;;;0.90;99.90;;;;;;4904246;29;20056;-79
2022/03/04 08:42:21;;;;;;;21.10;11.80;;;0.90;99.90;;;;;;4908530;29;20048;-71
2022/03/04 08:44:47;;;;;;;12.50;10.17;;;1.00;99.90;;;;;;4914524;29;20271;-72
2022/03/04 08:47:12;;;;;;;8.57;7.80;;;1.00;99.90;;;;;;4929511;28;20071;-71
2022/03/04 08:49:38;;;;;;;11.63;10.53;;;1.00;99.90;;;;;;4905840;29;20040;-71
2022/03/04 08:52:04;;;;;;;9.30;8.27;;;1.00;99.90;;;;;;4904650;29;20048;-71
2022/03/04 08:54:30;;;;;;;13.90;9.60;;;1.10;99.90;;;;;;4907177;29;20044;-74
2022/03/04 08:56:56;;;;;;;11.90;10.63;;;1.10;99.90;;;;;;4913353;29;20495;-71
2022/03/04 08:59:22;;;;;;;10.70;8.03;;;1.10;99.90;;;;;;4925023;29;20044;-71
2022/03/04 09:01:47;;;;;;;12.50;9.97;;;1.10;99.90;;;;;;4910972;29;20155;-71
2022/03/04 09:04:14;;;;;;;14.30;10.47;;;1.10;99.90;;;;;;4923230;29;20082;-71
2022/03/04 09:06:40;;;;;;;20.30;14.07;;;1.10;99.90;;;;;;4923981;29;20062;-71
2022/03/04 09:09:06;;;;;;;13.87;11.93;;;1.10;99.90;;;;;;4923955;29;20111;-72
2022/03/04 09:11:32;;;;;;;11.80;9.87;;;1.10;99.90;;;;;;4923357;29;20590;-72
2022/03/04 09:13:58;;;;;;;12.73;10.47;;;1.10;99.90;;;;;;4923456;29;20079;-72
2022/03/04 09:16:23;;;;;;;11.77;10.67;;;1.10;99.90;;;;;;4923532;29;20458;-72
2022/03/04 09:18:49;;;;;;;21.83;9.03;;;1.20;99.90;;;;;;4923029;29;20073;-72
2022/03/04 09:21:15;;;;;;;11.97;7.87;;;1.20;99.90;;;;;;4907405;29;20276;-72
2022/03/04 09:23:40;;;;;;;12.43;9.70;;;1.20;99.90;;;;;;4926251;29;20054;-73
2022/03/04 09:26:06;;;;;;;11.37;10.07;;;1.30;99.90;;;;;;4925540;29;20039;-72
2022/03/04 09:28:32;;;;;;;12.30;11.30;;;1.30;99.90;;;;;;4927392;29;20127;-72
2022/03/04 09:30:58;;;;;;;16.67;8.80;;;1.30;99.90;;;;;;4927066;29;20099;-72
2022/03/04 09:33:23;;;;;;;10.90;9.13;;;1.40;99.90;;;;;;4927924;29;20047;-72
2022/03/04 09:35:49;;;;;;;12.10;11.07;;;1.40;99.90;;;;;;4927164;29;20054;-72
2022/03/04 09:38:15;;;;;;;10.53;9.43;;;1.40;99.90;;;;;;4926665;29;20102;-72
2022/03/04 09:40:41;;;;;;;17.17;9.87;;;1.50;99.90;;;;;;4927144;29;20491;-72
2022/03/04 09:43:07;;;;;;;20.40;11.37;;;1.50;99.90;;;;;;4926918;29;20462;-72
2022/03/04 09:45:34;;;;;;;16.13;9.63;;;1.50;99.90;;;;;;4927348;28;20048;-72
2022/03/04 09:48:02;;;;;;;16.20;10.97;;;1.50;99.90;;;;;;4908454;29;20099;-72
2022/03/04 09:50:30;;;;;;;11.70;10.67;;;1.60;99.90;;;;;;4915949;29;20058;-72
2022/03/04 09:52:56;;;;;;;12.13;10.80;;;1.50;99.90;;;;;;4927278;29;20443;-71
2022/03/04 09:55:22;;;;;;;13.33;11.37;;;1.60;99.90;;;;;;4924871;29;20457;-72
2022/03/04 09:57:48;;;;;;;14.70;9.47;;;1.60;99.90;;;;;;4927464;29;20043;-72
2022/03/04 10:00:14;;;;;;;13.00;11.60;;;1.60;99.90;;;;;;4927017;29;20086;-71
2022/03/04 10:02:40;;;;;;;21.97;9.63;;;1.70;99.90;;;;;;4910808;29;20047;-71
2022/03/04 10:05:08;;;;;;;11.00;9.67;;;1.70;99.90;;;;;;4926805;29;20047;-71
2022/03/04 10:07:42;;;;;;;10.70;9.73;;;1.70;99.90;;;;;;4926913;29;20090;-71
2022/03/04 10:10:12;;;;;;;9.87;8.87;;;1.70;99.90;;;;;;4926315;29;20044;-71
2022/03/04 10:12:48;;;;;;;16.37;10.10;;;1.70;99.90;;;;;;4926765;29;20058;-72
2022/03/04 10:15:14;;;;;;;18.77;12.10;;;1.80;99.90;;;;;;4926102;29;20047;-72
2022/03/04 10:17:40;;;;;;;12.00;10.47;;;1.80;99.90;;;;;;4926055;29;20048;-72
2022/03/04 10:20:09;;;;;;;13.03;8.93;;;1.80;99.90;;;;;;4926477;29;20297;-72
2022/03/04 10:22:37;;;;;;;15.47;8.67;;;1.80;99.90;;;;;;4926451;29;20103;-72
2022/03/04 10:25:23;;;;;;;18.70;10.63;;;1.90;99.90;;;;;;4926177;29;20040;-71
2022/03/04 10:27:50;;;;;;;13.87;11.40;;;1.90;99.90;;;;;;4926485;29;20402;-72
2022/03/04 10:30:16;;;;;;;11.10;9.97;;;1.90;99.90;;;;;;4925473;29;20506;-73
2022/03/04 10:32:42;;;;;;;12.73;11.40;;;1.90;99.90;;;;;;4926748;29;20052;-72
2022/03/04 10:35:13;;;;;;;11.70;9.83;;;2.00;99.90;;;;;;4925055;29;20048;-72
2022/03/04 10:37:54;;;;;;;14.53;10.40;;;2.00;99.90;;;;;;4926927;29;20043;-72
2022/03/04 10:40:22;;;;;;;12.43;11.30;;;2.00;99.90;;;;;;4924086;29;20300;-72
2022/03/04 10:42:47;;;;;;;12.47;9.33;;;2.10;99.90;;;;;;4924974;29;20048;-72
2022/03/04 10:45:37;;;;;;;13.87;11.70;;;2.10;99.90;;;;;;4913942;29;20059;-71
2022/03/04 10:48:08;;;;;;;13.50;9.00;;;2.00;99.90;;;;;;4907521;29;20127;-72
2022/03/04 10:50:42;;;;;;;17.20;11.80;;;2.10;99.90;;;;;;4926012;29;20525;-72
2022/03/04 10:53:19;;;;;;;35.63;10.77;;;2.10;99.90;;;;;;4925606;29;20047;-72
2022/03/04 10:55:46;;;;;;;13.90;9.30;;;2.20;99.90;;;;;;4923644;29;20044;-73
2022/03/04 10:58:18;;;;;;;14.37;11.53;;;2.20;99.90;;;;;;4926423;29;20098;-71
2022/03/04 11:00:51;;;;;;;18.73;10.67;;;2.30;99.90;;;;;;4926862;29;20171;-71
2022/03/04 11:03:24;;;;;;;11.53;10.40;;;2.30;99.90;;;;;;4925970;29;20498;-72
2022/03/04 11:05:52;;;;;;;10.20;9.30;;;2.30;99.90;;;;;;4925738;29;20051;-72
2022/03/04 11:08:20;;;;;;;8.27;7.57;;;2.40;99.90;;;;;;4926011;29;20082;-72
2022/03/04 11:10:46;;;;;;;12.00;8.20;;;2.40;99.90;;;;;;4925498;29;20040;-73
2022/03/04 11:13:12;;;;;;;11.33;8.57;;;2.40;99.90;;;;;;4925927;29;20035;-72
2022/03/04 11:15:40;;;;;;;10.63;9.10;;;2.50;99.90;;;;;;4926306;29;20051;-72
2022/03/04 11:18:09;;;;;;;10.53;9.37;;;2.50;99.90;;;;;;4925965;29;20094;-72
2022/03/04 11:20:35;;;;;;;9.80;7.77;;;2.50;99.90;;;;;;4926402;29;20401;-72
2022/03/04 11:23:02;;;;;;;13.23;7.57;;;2.60;99.90;;;;;;4924899;29;20058;-72
2022/03/04 11:25:39;;;;;;;11.30;8.83;;;2.60;99.90;;;;;;4925574;29;20134;-73
2022/03/04 11:28:17;;;;;;;8.83;6.83;;;2.70;99.90;;;;;;4926203;29;20047;-72
2022/03/04 11:30:46;;;;;;;8.90;7.60;;;2.80;99.90;;;;;;4926552;29;20115;-72
2022/03/04 11:33:21;;;;;;;14.53;8.87;;;2.80;99.90;;;;;;4925313;29;20050;-72
2022/03/04 11:36:11;;;;;;;17.80;10.30;;;2.80;99.90;;;;;;4919001;29;20666;-72
2022/03/04 11:38:49;;;;;;;13.40;11.17;;;2.90;99.90;;;;;;4913827;29;20042;-72
2022/03/04 11:41:26;;;;;;;8.30;6.40;;;2.90;99.90;;;;;;4938447;28;20044;-73
2022/03/04 11:44:00;;;;;;;12.47;9.07;;;2.90;99.90;;;;;;4922919;29;20054;-72
2022/03/04 11:46:28;;;;;;;10.10;9.10;;;2.90;99.90;;;;;;4906618;29;20048;-72
2022/03/04 11:49:28;;;;;;;10.00;7.43;;;3.00;99.90;;;;;;4910575;29;20075;-73
2022/03/04 11:52:21;;;;;;;6.53;5.40;;;3.00;99.90;;;;;;4913656;29;20558;-71
2022/03/04 11:54:49;;;;;;;11.43;8.00;;;3.00;99.90;;;;;;4914361;29;20472;-73
2022/03/04 11:57:20;;;;;;;11.37;7.40;;;3.00;99.90;;;;;;4914576;29;20082;-73
2022/03/04 12:00:10;;;;;;;10.17;7.03;;;3.10;99.90;;;;;;4914823;29;20035;-73
2022/03/04 12:02:46;;;;;;;10.87;8.37;;;3.10;99.90;;;;;;4904000;29;20047;-71
2022/03/04 12:05:17;;;;;;;10.03;8.33;;;3.20;99.90;;;;;;4918963;29;20098;-74
2022/03/04 12:07:45;;;;;;;11.83;8.27;;;3.20;99.90;;;;;;4898909;29;20047;-72
2022/03/04 12:10:15;;;;;;;7.93;6.53;;;3.30;99.90;;;;;;4914567;29;20051;-71
2022/03/04 12:12:58;;;;;;;20.33;8.17;;;3.30;99.90;;;;;;4914348;29;20040;-74
2022/03/04 12:15:24;;;;;;;9.17;8.03;;;3.30;99.90;;;;;;4915868;29;20070;-72
2022/03/04 12:17:52;;;;;;;12.50;10.07;;;3.30;99.90;;;;;;4914311;29;20235;-74
2022/03/04 12:20:27;;;;;;;12.50;8.63;;;3.40;99.90;;;;;;4914716;29;20039;-74
2022/03/04 12:22:57;;;;;;;13.10;6.87;;;3.40;99.90;;;;;;4914143;29;20052;-72
2022/03/04 12:25:56;;;;;;;7.23;6.30;;;3.40;99.90;;;;;;4922581;28;20562;-73
2022/03/04 12:28:27;;;;;;;8.17;6.93;;;3.50;99.90;;;;;;4923779;29;20537;-72
2022/03/04 12:31:01;;;;;;;13.37;7.20;;;3.60;99.90;;;;;;4923529;29;20498;-72
2022/03/04 12:33:31;;;;;;;7.60;6.47;;;3.50;99.90;;;;;;4923754;29;20047;-72
2022/03/04 12:35:58;;;;;;;8.60;7.90;;;3.60;99.90;;;;;;4923578;29;20079;-72
2022/03/04 12:38:27;;;;;;;5.33;4.90;;;3.60;99.90;;;;;;4922908;29;20051;-73
2022/03/04 12:40:56;;;;;;;6.87;6.20;;;3.60;99.90;;;;;;4924557;29;20044;-71
2022/03/04 12:43:22;;;;;;;16.83;7.57;;;3.70;99.90;;;;;;4924158;29;20043;-72
2022/03/04 12:45:47;;;;;;;8.23;7.53;;;3.70;99.90;;;;;;4906702;29;20058;-72
2022/03/04 12:48:13;;;;;;;20.53;8.17;;;3.80;99.90;;;;;;4907011;29;20122;-72
2022/03/04 12:50:39;;;;;;;8.63;7.27;;;3.80;99.90;;;;;;4915015;29;20095;-72
2022/03/04 12:53:21;;;;;;;23.40;7.23;;;3.80;99.90;;;;;;4913515;29;20060;-72